createdAt,value
2017-04-12T00:01:18.225Z,4
2017-04-12T00:02:17.902Z,4
2017-04-12T00:03:17.837Z,4
2017-04-12T00:04:17.166Z,4
2017-04-12T00:05:17.405Z,4
2017-04-12T00:06:17.339Z,4
2017-04-12T00:07:17.584Z,4
2017-04-12T00:08:17.515Z,4
2017-04-12T00:09:17.452Z,4
2017-04-12T00:10:17.393Z,4
2017-04-12T00:11:17.324Z,0
2017-04-12T00:12:16.967Z,0
2017-04-12T00:13:17.202Z,0
2017-04-12T00:14:16.836Z,0
2017-04-12T00:15:17.072Z,0
2017-04-12T00:16:17.007Z,0
2017-04-12T00:17:16.947Z,0
2017-04-12T00:18:16.884Z,0
2017-04-12T00:19:16.816Z,0
2017-04-12T00:20:16.756Z,0
2017-04-12T00:21:16.691Z,0
2017-04-12T00:22:16.636Z,0
2017-04-12T00:23:16.560Z,0
2017-04-12T00:24:16.728Z,0
2017-04-12T00:25:16.635Z,0
2017-04-12T00:26:16.520Z,0
2017-04-12T00:27:16.303Z,0
2017-04-12T00:28:16.243Z,0
2017-04-12T00:29:16.184Z,0
2017-04-12T00:30:16.115Z,0
2017-04-12T00:31:16.054Z,0
2017-04-12T00:32:15.985Z,0
2017-04-12T00:33:15.923Z,0
2017-04-12T00:34:15.860Z,0
2017-04-12T00:35:15.494Z,0
2017-04-12T00:36:15.433Z,0
2017-04-12T00:37:15.667Z,0
2017-04-12T00:38:15.602Z,0
2017-04-12T00:39:15.550Z,0
2017-04-12T00:40:15.476Z,0
2017-04-12T00:41:15.114Z,0
2017-04-12T00:42:15.048Z,0
2017-04-12T00:43:15.028Z,0
2017-04-12T00:44:14.922Z,0
2017-04-12T00:45:15.156Z,0
2017-04-12T00:46:15.101Z,0
2017-04-12T00:47:15.030Z,0
2017-04-12T00:48:14.964Z,0
2017-04-12T00:49:14.903Z,0
2017-04-12T00:50:14.841Z,0
2017-04-12T00:51:14.773Z,0
2017-04-12T00:52:14.711Z,0
2017-04-12T00:53:14.660Z,0
2017-04-12T00:54:14.285Z,0
2017-04-12T00:55:14.525Z,0
2017-04-12T00:56:14.457Z,0
2017-04-12T00:57:14.394Z,0
2017-04-12T00:58:14.329Z,0
2017-04-12T00:59:14.267Z,0
2017-04-12T01:00:14.201Z,0
2017-04-12T01:01:14.140Z,0
2017-04-12T01:02:14.072Z,0
2017-04-12T01:03:14.012Z,0
2017-04-12T01:04:13.950Z,0
2017-04-12T01:05:13.888Z,0
2017-04-12T01:06:13.826Z,0
2017-04-12T01:07:13.759Z,0
2017-04-12T01:08:13.694Z,0
2017-04-12T01:09:13.650Z,0
2017-04-12T01:10:13.568Z,0
2017-04-12T01:11:13.498Z,0
2017-04-12T01:12:13.438Z,0
2017-04-12T01:13:13.648Z,0
2017-04-12T01:14:13.011Z,0
2017-04-12T01:15:13.248Z,0
2017-04-12T01:16:13.184Z,0
2017-04-12T01:17:13.125Z,0
2017-04-12T01:18:12.758Z,0
2017-04-12T01:19:13.000Z,0
2017-04-12T01:20:12.941Z,0
2017-04-12T01:21:12.564Z,0
2017-04-12T01:22:12.847Z,0
2017-04-12T01:23:12.749Z,0
2017-04-12T01:24:12.379Z,0
2017-04-12T01:25:12.615Z,0
2017-04-12T01:26:12.549Z,0
2017-04-12T01:27:12.485Z,0
2017-04-12T01:28:12.421Z,0
2017-04-12T01:29:12.407Z,0
2017-04-12T01:30:12.330Z,0
2017-04-12T01:31:12.238Z,0
2017-04-12T01:32:12.202Z,0
2017-04-12T01:33:12.107Z,0
2017-04-12T01:34:12.037Z,0
2017-04-12T01:35:11.977Z,0
2017-04-12T01:36:11.910Z,0
2017-04-12T01:37:11.852Z,0
2017-04-12T01:38:11.823Z,0
2017-04-12T01:39:11.720Z,0
2017-04-12T01:40:11.660Z,0
2017-04-12T01:41:11.595Z,0
2017-04-12T01:42:11.226Z,0
2017-04-12T01:43:11.467Z,0
2017-04-12T01:44:11.405Z,0
2017-04-12T01:45:11.342Z,0
2017-04-12T01:46:11.276Z,0
2017-04-12T01:47:10.916Z,0
2017-04-12T01:48:11.147Z,0
2017-04-12T01:49:11.085Z,0
2017-04-12T01:50:11.021Z,0
2017-04-12T01:51:10.956Z,0
2017-04-12T01:52:10.590Z,0
2017-04-12T01:53:10.529Z,0
2017-04-12T01:54:11.116Z,0
2017-04-12T01:55:10.701Z,0
2017-04-12T01:56:10.334Z,0
2017-04-12T01:57:10.269Z,0
2017-04-12T01:58:10.510Z,0
2017-04-12T01:59:10.706Z,0
2017-04-12T02:00:10.389Z,0
2017-04-12T02:01:10.320Z,0
2017-04-12T02:02:09.969Z,0
2017-04-12T02:03:10.198Z,0
2017-04-12T02:04:10.131Z,0
2017-04-12T02:05:10.072Z,0
2017-04-12T02:06:10.002Z,0
2017-04-12T02:07:09.938Z,0
2017-04-12T02:08:09.875Z,0
2017-04-12T02:09:09.812Z,0
2017-04-12T02:10:09.801Z,0
2017-04-12T02:11:09.391Z,0
2017-04-12T02:12:09.658Z,0
2017-04-12T02:13:09.551Z,0
2017-04-12T02:14:09.490Z,0
2017-04-12T02:15:09.430Z,0
2017-04-12T02:16:09.363Z,0
2017-04-12T02:17:09.296Z,0
2017-04-12T02:18:08.936Z,0
2017-04-12T02:19:09.173Z,0
2017-04-12T02:20:08.846Z,0
2017-04-12T02:21:09.049Z,0
2017-04-12T02:22:08.988Z,0
2017-04-12T02:23:08.918Z,0
2017-04-12T02:24:08.854Z,0
2017-04-12T02:25:08.789Z,0
2017-04-12T02:26:08.723Z,0
2017-04-12T02:27:08.665Z,0
2017-04-12T02:28:08.300Z,0
2017-04-12T02:29:08.235Z,0
2017-04-12T02:30:08.476Z,0
2017-04-12T02:31:08.406Z,0
2017-04-12T02:32:08.047Z,0
2017-04-12T02:33:08.288Z,0
2017-04-12T02:34:07.614Z,0
2017-04-12T02:35:07.858Z,0
2017-04-12T02:36:07.793Z,0
2017-04-12T02:37:07.726Z,0
2017-04-12T02:38:07.963Z,0
2017-04-12T02:39:07.900Z,0
2017-04-12T02:40:07.844Z,0
2017-04-12T02:41:07.775Z,0
2017-04-12T02:42:07.717Z,0
2017-04-12T02:43:07.651Z,0
2017-04-12T02:44:07.587Z,0
2017-04-12T02:45:07.521Z,0
2017-04-12T02:46:07.456Z,0
2017-04-12T02:47:07.401Z,0
2017-04-12T02:48:07.334Z,0
2017-04-12T02:49:07.271Z,0
2017-04-12T02:50:06.304Z,0
2017-04-12T02:51:07.148Z,0
2017-04-12T02:52:06.775Z,0
2017-04-12T02:53:07.019Z,0
2017-04-12T02:54:06.946Z,0
2017-04-12T02:55:06.885Z,0
2017-04-12T02:56:06.819Z,0
2017-04-12T02:57:06.456Z,0
2017-04-12T02:58:06.399Z,0
2017-04-12T02:59:06.629Z,0
2017-04-12T03:00:06.568Z,0
2017-04-12T03:01:06.551Z,0
2017-04-12T03:02:06.443Z,0
2017-04-12T03:03:06.375Z,0
2017-04-12T03:04:05.715Z,0
2017-04-12T03:05:06.252Z,0
2017-04-12T03:06:06.190Z,0
2017-04-12T03:07:06.122Z,0
2017-04-12T03:08:06.066Z,0
2017-04-12T03:09:05.994Z,0
2017-04-12T03:10:05.325Z,0
2017-04-12T03:11:05.866Z,0
2017-04-12T03:12:05.806Z,0
2017-04-12T03:13:05.745Z,0
2017-04-12T03:14:05.681Z,0
2017-04-12T03:15:05.313Z,0
2017-04-12T03:16:05.552Z,0
2017-04-12T03:17:05.486Z,0
2017-04-12T03:18:05.429Z,0
2017-04-12T03:19:05.061Z,0
2017-04-12T03:20:05.306Z,0
2017-04-12T03:21:05.240Z,0
2017-04-12T03:22:05.172Z,0
2017-04-12T03:23:05.106Z,0
2017-04-12T03:24:05.053Z,0
2017-04-12T03:25:04.983Z,0
2017-04-12T03:26:04.911Z,0
2017-04-12T03:27:04.855Z,0
2017-04-12T03:28:04.789Z,0
2017-04-12T03:29:04.729Z,0
2017-04-12T03:30:04.666Z,0
2017-04-12T03:31:04.596Z,0
2017-04-12T03:32:04.533Z,0
2017-04-12T03:33:04.514Z,0
2017-04-12T03:34:04.402Z,0
2017-04-12T03:35:04.350Z,0
2017-04-12T03:36:04.279Z,0
2017-04-12T03:37:04.213Z,0
2017-04-12T03:38:04.149Z,0
2017-04-12T03:39:04.087Z,0
2017-04-12T03:40:04.025Z,0
2017-04-12T03:41:03.958Z,0
2017-04-12T03:42:03.905Z,0
2017-04-12T03:43:03.838Z,0
2017-04-12T03:44:03.765Z,0
2017-04-12T03:45:03.756Z,0
2017-04-12T03:46:03.652Z,0
2017-04-12T03:47:03.276Z,0
2017-04-12T03:48:03.516Z,0
2017-04-12T03:49:03.448Z,0
2017-04-12T03:50:03.387Z,0
2017-04-12T03:51:03.371Z,0
2017-04-12T03:52:03.256Z,0
2017-04-12T03:53:03.196Z,0
2017-04-12T03:54:02.826Z,0
2017-04-12T03:55:03.068Z,0
2017-04-12T03:56:03.002Z,0
2017-04-12T03:57:02.942Z,0
2017-04-12T03:58:02.875Z,0
2017-04-12T03:59:02.813Z,0
2017-04-12T04:00:02.804Z,0
2017-04-12T04:01:02.686Z,0
2017-04-12T04:02:02.619Z,0
2017-04-12T04:03:02.554Z,0
2017-04-12T04:04:02.495Z,0
2017-04-12T04:05:02.437Z,0
2017-04-12T04:06:02.073Z,0
2017-04-12T04:07:02.307Z,0
2017-04-12T04:08:02.244Z,0
2017-04-12T04:09:02.186Z,0
2017-04-12T04:10:02.117Z,0
2017-04-12T04:11:01.750Z,0
2017-04-12T04:12:01.980Z,0
2017-04-12T04:13:01.919Z,0
2017-04-12T04:14:01.858Z,0
2017-04-12T04:15:01.789Z,4
2017-04-12T04:16:01.729Z,4
2017-04-12T04:17:01.662Z,4
2017-04-12T04:18:01.602Z,4
2017-04-12T04:19:01.536Z,4
2017-04-12T04:20:01.470Z,4
2017-04-12T04:21:01.408Z,4
2017-04-12T04:22:01.343Z,4
2017-04-12T04:23:01.282Z,4
2017-04-12T04:24:01.220Z,4
2017-04-12T04:25:00.850Z,4
2017-04-12T04:26:00.787Z,4
2017-04-12T04:27:01.030Z,4
2017-04-12T04:28:00.963Z,4
2017-04-12T04:29:00.894Z,4
2017-04-12T04:30:00.839Z,4
2017-04-12T04:31:00.766Z,4
2017-04-12T04:32:00.707Z,4
2017-04-12T04:33:00.637Z,4
2017-04-12T04:34:00.573Z,4
2017-04-12T04:35:00.214Z,4
2017-04-12T04:36:00.463Z,4
2017-04-12T04:37:00.384Z,4
2017-04-12T04:38:00.317Z,4
2017-04-12T04:39:00.257Z,4
2017-04-12T04:40:00.202Z,4
2017-04-12T04:41:00.128Z,4
2017-04-12T04:42:00.064Z,4
2017-04-12T04:42:59.760Z,4
2017-04-12T04:43:59.946Z,4
2017-04-12T04:44:59.874Z,4
2017-04-12T04:45:59.806Z,4
2017-04-12T04:46:59.751Z,4
2017-04-12T04:47:59.683Z,4
2017-04-12T04:48:59.622Z,4
2017-04-12T04:49:59.554Z,4
2017-04-12T04:50:59.487Z,4
2017-04-12T04:51:59.429Z,4
2017-04-12T04:52:59.363Z,8
2017-04-12T04:53:59.295Z,4
2017-04-12T04:54:59.229Z,4
2017-04-12T04:55:59.516Z,4
2017-04-12T04:56:59.103Z,4
2017-04-12T04:57:58.739Z,4
2017-04-12T04:58:58.975Z,4
2017-04-12T04:59:58.909Z,4
2017-04-12T05:00:58.998Z,4
2017-04-12T05:01:58.498Z,4
2017-04-12T05:02:58.418Z,4
2017-04-12T05:03:58.657Z,4
2017-04-12T05:04:58.604Z,4
2017-04-12T05:05:58.525Z,4
2017-04-12T05:06:58.467Z,4
2017-04-12T05:07:58.402Z,4
2017-04-12T05:08:58.335Z,4
2017-04-12T05:09:58.273Z,4
2017-04-12T05:10:58.208Z,4
2017-04-12T05:11:58.146Z,4
2017-04-12T05:12:58.084Z,4
2017-04-12T05:13:58.020Z,4
2017-04-12T05:14:57.954Z,4
2017-04-12T05:15:57.587Z,4
2017-04-12T05:16:57.824Z,4
2017-04-12T05:17:57.762Z,4
2017-04-12T05:18:57.698Z,4
2017-04-12T05:19:57.634Z,4
2017-04-12T05:20:57.279Z,4
2017-04-12T05:21:57.511Z,4
2017-04-12T05:22:57.144Z,4
2017-04-12T05:23:57.381Z,4
2017-04-12T05:24:57.316Z,4
2017-04-12T05:25:57.252Z,4
2017-04-12T05:26:57.185Z,4
2017-04-12T05:27:57.130Z,4
2017-04-12T05:28:57.061Z,4
2017-04-12T05:29:56.991Z,4
2017-04-12T05:30:56.935Z,4
2017-04-12T05:31:56.865Z,4
2017-04-12T05:32:56.810Z,4
2017-04-12T05:33:56.739Z,4
2017-04-12T05:34:56.681Z,8
2017-04-12T05:35:56.607Z,8
2017-04-12T05:36:56.550Z,8
2017-04-12T05:37:56.485Z,8
2017-04-12T05:38:56.417Z,8
2017-04-12T05:39:56.352Z,8
2017-04-12T05:40:56.293Z,8
2017-04-12T05:41:56.228Z,8
2017-04-12T05:42:56.169Z,8
2017-04-12T05:43:56.106Z,8
2017-04-12T05:44:56.033Z,8
2017-04-12T05:45:55.968Z,8
2017-04-12T05:46:55.907Z,8
2017-04-12T05:47:55.847Z,8
2017-04-12T05:48:55.779Z,8
2017-04-12T05:49:55.719Z,8
2017-04-12T05:50:55.648Z,4
2017-04-12T05:51:55.587Z,8
2017-04-12T05:52:55.219Z,8
2017-04-12T05:53:55.463Z,8
2017-04-12T05:54:55.395Z,8
2017-04-12T05:55:55.027Z,12
2017-04-12T05:56:55.265Z,8
2017-04-12T05:57:54.905Z,12
2017-04-12T05:58:55.134Z,12
2017-04-12T05:59:55.071Z,12
2017-04-12T06:00:55.014Z,12
2017-04-12T06:01:54.642Z,8
2017-04-12T06:02:54.879Z,12
2017-04-12T06:03:54.823Z,12
2017-04-12T06:04:54.752Z,8
2017-04-12T06:05:54.842Z,8
2017-04-12T06:06:54.624Z,8
2017-04-12T06:07:54.563Z,8
2017-04-12T06:08:54.499Z,8
2017-04-12T06:09:54.438Z,8
2017-04-12T06:10:54.471Z,8
2017-04-12T06:11:54.308Z,8
2017-04-12T06:12:54.244Z,8
2017-04-12T06:13:54.177Z,12
2017-04-12T06:14:54.115Z,12
2017-04-12T06:15:54.049Z,16
2017-04-12T06:16:53.982Z,16
2017-04-12T06:17:53.921Z,12
2017-04-12T06:18:53.860Z,12
2017-04-12T06:19:53.793Z,16
2017-04-12T06:20:53.728Z,16
2017-04-12T06:21:53.672Z,16
2017-04-12T06:22:53.619Z,12
2017-04-12T06:23:53.540Z,12
2017-04-12T06:24:53.475Z,8
2017-04-12T06:25:53.413Z,8
2017-04-12T06:26:53.346Z,12
2017-04-12T06:27:53.282Z,12
2017-04-12T06:28:53.222Z,16
2017-04-12T06:29:52.860Z,16
2017-04-12T06:30:53.090Z,16
2017-04-12T06:31:53.023Z,20
2017-04-12T06:32:52.660Z,16
2017-04-12T06:33:52.601Z,20
2017-04-12T06:34:52.832Z,24
2017-04-12T06:35:52.469Z,20
2017-04-12T06:36:52.707Z,24
2017-04-12T06:37:52.643Z,28
2017-04-12T06:38:52.584Z,28
2017-04-12T06:39:52.212Z,28
2017-04-12T06:40:52.446Z,28
2017-04-12T06:41:52.469Z,32
2017-04-12T06:42:52.322Z,32
2017-04-12T06:43:52.263Z,32
2017-04-12T06:44:52.636Z,32
2017-04-12T06:45:52.132Z,32
2017-04-12T06:46:52.487Z,108
2017-04-12T06:47:52.010Z,140
2017-04-12T06:48:51.941Z,156
2017-04-12T06:49:51.877Z,156
2017-04-12T06:50:51.805Z,156
2017-04-12T06:51:51.750Z,160
2017-04-12T06:52:51.681Z,160
2017-04-12T06:53:51.337Z,156
2017-04-12T06:54:51.556Z,156
2017-04-12T06:55:51.524Z,152
2017-04-12T06:56:51.423Z,152
2017-04-12T06:57:51.060Z,152
2017-04-12T06:58:50.995Z,148
2017-04-12T06:59:51.233Z,148
2017-04-12T07:00:51.226Z,148
2017-04-12T07:01:51.102Z,152
2017-04-12T07:02:51.041Z,156
2017-04-12T07:03:51.004Z,152
2017-04-12T07:04:51.134Z,156
2017-04-12T07:05:50.988Z,156
2017-04-12T07:06:50.900Z,160
2017-04-12T07:07:50.728Z,164
2017-04-12T07:08:50.669Z,164
2017-04-12T07:09:50.590Z,164
2017-04-12T07:10:50.528Z,160
2017-04-12T07:11:50.468Z,160
2017-04-12T07:12:50.098Z,156
2017-04-12T07:13:50.350Z,156
2017-04-12T07:14:50.318Z,156
2017-04-12T07:15:50.210Z,156
2017-04-12T07:16:50.207Z,152
2017-04-12T07:17:50.086Z,148
2017-04-12T07:18:50.019Z,148
2017-04-12T07:19:49.956Z,148
2017-04-12T07:20:49.931Z,148
2017-04-12T07:21:49.871Z,148
2017-04-12T07:22:49.764Z,144
2017-04-12T07:23:49.710Z,152
2017-04-12T07:24:49.660Z,148
2017-04-12T07:25:49.604Z,148
2017-04-12T07:26:49.507Z,152
2017-04-12T07:27:49.166Z,152
2017-04-12T07:28:49.536Z,152
2017-04-12T07:29:49.046Z,148
2017-04-12T07:30:49.251Z,152
2017-04-12T07:31:49.225Z,152
2017-04-12T07:32:49.390Z,156
2017-04-12T07:33:49.144Z,156
2017-04-12T07:34:48.798Z,156
2017-04-12T07:35:49.003Z,160
2017-04-12T07:36:48.617Z,156
2017-04-12T07:37:48.913Z,160
2017-04-12T07:38:48.143Z,160
2017-04-12T07:39:48.693Z,168
2017-04-12T07:40:48.695Z,164
2017-04-12T07:41:47.950Z,168
2017-04-12T07:42:48.273Z,172
2017-04-12T07:43:48.520Z,172
2017-04-12T07:44:48.088Z,168
2017-04-12T07:45:47.744Z,164
2017-04-12T07:46:47.699Z,164
2017-04-12T07:47:48.250Z,164
2017-04-12T07:48:47.870Z,160
2017-04-12T07:49:47.755Z,160
2017-04-12T07:50:47.680Z,164
2017-04-12T07:51:48.016Z,164
2017-04-12T07:52:47.608Z,164
2017-04-12T07:53:47.194Z,164
2017-04-12T07:54:47.424Z,160
2017-04-12T07:55:47.417Z,160
2017-04-12T07:56:47.341Z,160
2017-04-12T07:57:47.232Z,164
2017-04-12T07:58:47.477Z,160
2017-04-12T07:59:47.504Z,156
2017-04-12T08:00:47.756Z,156
2017-04-12T08:01:47.320Z,156
2017-04-12T08:02:47.224Z,156
2017-04-12T08:03:46.849Z,152
2017-04-12T08:04:47.096Z,152
2017-04-12T08:05:47.138Z,156
2017-04-12T08:06:46.969Z,156
2017-04-12T08:07:46.600Z,156
2017-04-12T08:08:46.546Z,156
2017-04-12T08:09:46.801Z,156
2017-04-12T08:10:46.875Z,160
2017-04-12T08:11:46.651Z,152
2017-04-12T08:12:46.605Z,152
2017-04-12T08:13:46.526Z,152
2017-04-12T08:14:46.475Z,32
2017-04-12T08:15:46.400Z,32
2017-04-12T08:16:45.725Z,40
2017-04-12T08:17:46.320Z,44
2017-04-12T08:18:46.229Z,48
2017-04-12T08:19:46.142Z,44
2017-04-12T08:20:45.785Z,44
2017-04-12T08:21:45.712Z,44
2017-04-12T08:22:45.474Z,44
2017-04-12T08:23:45.889Z,44
2017-04-12T08:24:45.823Z,40
2017-04-12T08:25:44.970Z,40
2017-04-12T08:26:45.125Z,44
2017-04-12T08:27:45.357Z,44
2017-04-12T08:28:44.962Z,52
2017-04-12T08:29:45.511Z,52
2017-04-12T08:30:45.242Z,56
2017-04-12T08:31:44.781Z,60
2017-04-12T08:32:45.338Z,56
2017-04-12T08:33:44.955Z,56
2017-04-12T08:34:44.886Z,56
2017-04-12T08:35:45.073Z,56
2017-04-12T08:36:44.450Z,56
2017-04-12T08:37:44.694Z,56
2017-04-12T08:38:44.631Z,52
2017-04-12T08:39:44.883Z,52
2017-04-12T08:40:45.110Z,52
2017-04-12T08:41:44.483Z,52
2017-04-12T08:42:44.382Z,52
2017-04-12T08:43:44.340Z,52
2017-04-12T08:44:44.256Z,52
2017-04-12T08:45:44.202Z,56
2017-04-12T08:46:44.435Z,52
2017-04-12T08:47:44.386Z,56
2017-04-12T08:48:44.299Z,64
2017-04-12T08:49:43.657Z,64
2017-04-12T08:50:44.177Z,68
2017-04-12T08:51:44.118Z,64
2017-04-12T08:52:44.070Z,60
2017-04-12T08:53:43.372Z,56
2017-04-12T08:54:43.915Z,60
2017-04-12T08:55:43.740Z,60
2017-04-12T08:56:43.558Z,64
2017-04-12T08:57:43.723Z,68
2017-04-12T08:58:43.360Z,72
2017-04-12T08:59:43.294Z,68
2017-04-12T09:00:43.536Z,60
2017-04-12T09:01:43.470Z,48
2017-04-12T09:02:43.409Z,44
2017-04-12T09:03:43.055Z,48
2017-04-12T09:04:42.981Z,48
2017-04-12T09:05:43.226Z,48
2017-04-12T09:06:42.858Z,44
2017-04-12T09:07:43.093Z,44
2017-04-12T09:08:43.032Z,40
2017-04-12T09:09:42.966Z,32
2017-04-12T09:10:42.751Z,36
2017-04-12T09:11:42.838Z,32
2017-04-12T09:12:42.777Z,32
2017-04-12T09:13:42.725Z,32
2017-04-12T09:14:41.739Z,32
2017-04-12T09:15:42.732Z,36
2017-04-12T09:16:42.524Z,36
2017-04-12T09:17:42.467Z,40
2017-04-12T09:18:42.092Z,40
2017-04-12T09:19:41.727Z,32
2017-04-12T09:20:41.671Z,36
2017-04-12T09:21:41.901Z,36
2017-04-12T09:22:42.187Z,40
2017-04-12T09:23:42.076Z,40
2017-04-12T09:24:42.016Z,36
2017-04-12T09:25:41.951Z,36
2017-04-12T09:26:41.586Z,44
2017-04-12T09:27:41.829Z,44
2017-04-12T09:28:41.763Z,40
2017-04-12T09:29:41.399Z,36
2017-04-12T09:30:41.584Z,36
2017-04-12T09:31:41.568Z,40
2017-04-12T09:32:41.215Z,36
2017-04-12T09:33:41.449Z,40
2017-04-12T09:34:41.088Z,44
2017-04-12T09:35:41.344Z,48
2017-04-12T09:36:40.959Z,48
2017-04-12T09:37:41.207Z,52
2017-04-12T09:38:40.546Z,48
2017-04-12T09:39:40.479Z,40
2017-04-12T09:40:40.713Z,40
2017-04-12T09:41:40.656Z,40
2017-04-12T09:42:40.577Z,48
2017-04-12T09:43:40.204Z,44
2017-04-12T09:44:40.445Z,48
2017-04-12T09:45:40.683Z,44
2017-04-12T09:46:40.055Z,40
2017-04-12T09:47:40.563Z,40
2017-04-12T09:48:40.194Z,36
2017-04-12T09:49:40.136Z,36
2017-04-12T09:50:40.370Z,36
2017-04-12T09:51:40.303Z,40
2017-04-12T09:52:40.241Z,44
2017-04-12T09:53:40.178Z,40
2017-04-12T09:54:39.814Z,44
2017-04-12T09:55:40.053Z,36
2017-04-12T09:56:39.996Z,40
2017-04-12T09:57:39.929Z,40
2017-04-12T09:58:39.874Z,40
2017-04-12T09:59:39.795Z,40
2017-04-12T10:00:39.740Z,40
2017-04-12T10:01:39.673Z,32
2017-04-12T10:02:39.311Z,36
2017-04-12T10:03:39.577Z,36
2017-04-12T10:04:39.500Z,32
2017-04-12T10:05:39.415Z,36
2017-04-12T10:06:39.363Z,32
2017-04-12T10:07:38.998Z,28
2017-04-12T10:08:39.227Z,32
2017-04-12T10:09:38.866Z,36
2017-04-12T10:10:38.803Z,36
2017-04-12T10:11:39.247Z,32
2017-04-12T10:12:38.675Z,24
2017-04-12T10:13:38.612Z,28
2017-04-12T10:14:38.851Z,32
2017-04-12T10:15:38.792Z,32
2017-04-12T10:16:38.779Z,32
2017-04-12T10:17:38.668Z,36
2017-04-12T10:18:38.299Z,40
2017-04-12T10:19:38.231Z,36
2017-04-12T10:20:38.472Z,32
2017-04-12T10:21:38.407Z,36
2017-04-12T10:22:38.357Z,36
2017-04-12T10:23:37.978Z,32
2017-04-12T10:24:37.915Z,32
2017-04-12T10:25:38.157Z,36
2017-04-12T10:26:37.802Z,40
2017-04-12T10:27:37.728Z,36
2017-04-12T10:28:37.661Z,36
2017-04-12T10:29:37.907Z,40
2017-04-12T10:30:37.538Z,40
2017-04-12T10:31:37.170Z,44
2017-04-12T10:32:37.408Z,44
2017-04-12T10:33:37.651Z,40
2017-04-12T10:34:37.283Z,36
2017-04-12T10:35:36.916Z,32
2017-04-12T10:36:37.462Z,28
2017-04-12T10:37:37.406Z,28
2017-04-12T10:38:37.194Z,32
2017-04-12T10:39:36.988Z,40
2017-04-12T10:40:36.906Z,44
2017-04-12T10:41:36.544Z,44
2017-04-12T10:42:37.106Z,48
2017-04-12T10:43:36.710Z,52
2017-04-12T10:44:36.056Z,48
2017-04-12T10:45:36.888Z,48
2017-04-12T10:46:36.532Z,44
2017-04-12T10:47:36.763Z,48
2017-04-12T10:48:36.406Z,52
2017-04-12T10:49:36.265Z,48
2017-04-12T10:50:36.285Z,56
2017-04-12T10:51:36.515Z,52
2017-04-12T10:52:36.446Z,52
2017-04-12T10:53:36.139Z,56
2017-04-12T10:54:36.037Z,60
2017-04-12T10:55:35.789Z,52
2017-04-12T10:56:35.597Z,52
2017-04-12T10:57:36.143Z,56
2017-04-12T10:58:36.085Z,56
2017-04-12T10:59:35.709Z,52
2017-04-12T11:00:35.950Z,48
2017-04-12T11:01:35.881Z,52
2017-04-12T11:02:35.515Z,40
2017-04-12T11:03:35.460Z,44
2017-04-12T11:04:35.397Z,40
2017-04-12T11:05:35.296Z,56
2017-04-12T11:06:34.970Z,56
2017-04-12T11:07:35.506Z,48
2017-04-12T11:08:34.851Z,44
2017-04-12T11:09:35.371Z,48
2017-04-12T11:10:35.009Z,48
2017-04-12T11:11:35.282Z,44
2017-04-12T11:12:34.887Z,48
2017-04-12T11:13:35.128Z,52
2017-04-12T11:14:34.762Z,52
2017-04-12T11:15:35.006Z,56
2017-04-12T11:16:34.631Z,56
2017-04-12T11:17:34.279Z,52
2017-04-12T11:18:34.805Z,48
2017-04-12T11:19:34.442Z,56
2017-04-12T11:20:34.686Z,48
2017-04-12T11:21:34.624Z,52
2017-04-12T11:22:34.559Z,64
2017-04-12T11:23:34.193Z,68
2017-04-12T11:24:34.480Z,64
2017-04-12T11:25:34.470Z,68
2017-04-12T11:26:34.302Z,60
2017-04-12T11:27:33.939Z,60
2017-04-12T11:28:33.873Z,60
2017-04-12T11:29:33.858Z,68
2017-04-12T11:30:34.162Z,52
2017-04-12T11:31:34.036Z,44
2017-04-12T11:32:33.933Z,48
2017-04-12T11:33:33.560Z,52
2017-04-12T11:34:33.798Z,60
2017-04-12T11:35:33.430Z,56
2017-04-12T11:36:33.131Z,60
2017-04-12T11:37:33.324Z,60
2017-04-12T11:38:33.246Z,72
2017-04-12T11:39:32.876Z,76
2017-04-12T11:40:33.121Z,92
2017-04-12T11:41:33.069Z,80
2017-04-12T11:42:33.299Z,68
2017-04-12T11:43:33.233Z,64
2017-04-12T11:44:32.579Z,56
2017-04-12T11:45:33.113Z,56
2017-04-12T11:46:32.447Z,48
2017-04-12T11:47:32.980Z,40
2017-04-12T11:48:32.910Z,44
2017-04-12T11:49:32.852Z,52
2017-04-12T11:50:32.809Z,56
2017-04-12T11:51:32.465Z,52
2017-04-12T11:52:32.675Z,48
2017-04-12T11:53:32.598Z,44
2017-04-12T11:54:32.581Z,40
2017-04-12T11:55:32.318Z,32
2017-04-12T11:56:32.409Z,28
2017-04-12T11:57:32.380Z,28
2017-04-12T11:58:32.282Z,20
2017-04-12T11:59:31.854Z,16
2017-04-12T12:00:32.161Z,20
2017-04-12T12:01:32.095Z,16
2017-04-12T12:02:32.027Z,16
2017-04-12T12:03:31.665Z,20
2017-04-12T12:04:31.296Z,16
2017-04-12T12:05:31.838Z,20
2017-04-12T12:06:31.775Z,24
2017-04-12T12:07:31.717Z,24
2017-04-12T12:08:31.653Z,24
2017-04-12T12:09:31.281Z,28
2017-04-12T12:10:31.253Z,32
2017-04-12T12:11:31.157Z,40
2017-04-12T12:12:31.093Z,44
2017-04-12T12:13:30.730Z,48
2017-04-12T12:14:31.003Z,60
2017-04-12T12:15:31.210Z,64
2017-04-12T12:16:30.250Z,56
2017-04-12T12:17:31.111Z,52
2017-04-12T12:18:31.287Z,52
2017-04-12T12:19:31.016Z,48
2017-04-12T12:20:30.893Z,44
2017-04-12T12:21:30.561Z,40
2017-04-12T12:22:30.467Z,36
2017-04-12T12:23:30.703Z,36
2017-04-12T12:24:30.646Z,40
2017-04-12T12:25:30.605Z,48
2017-04-12T12:26:30.514Z,52
2017-04-12T12:27:30.454Z,56
2017-04-12T12:28:30.392Z,56
2017-04-12T12:29:30.338Z,52
2017-04-12T12:30:30.419Z,52
2017-04-12T12:31:30.206Z,48
2017-04-12T12:32:29.836Z,48
2017-04-12T12:33:30.076Z,48
2017-04-12T12:34:30.010Z,52
2017-04-12T12:35:29.743Z,60
2017-04-12T12:36:29.889Z,64
2017-04-12T12:37:29.231Z,64
2017-04-12T12:38:29.759Z,64
2017-04-12T12:39:29.696Z,64
2017-04-12T12:40:29.345Z,60
2017-04-12T12:41:28.964Z,56
2017-04-12T12:42:29.507Z,56
2017-04-12T12:43:29.441Z,52
2017-04-12T12:44:29.081Z,52
2017-04-12T12:45:28.711Z,52
2017-04-12T12:46:29.254Z,52
2017-04-12T12:47:28.888Z,52
2017-04-12T12:48:28.829Z,52
2017-04-12T12:49:28.763Z,52
2017-04-12T12:50:29.000Z,60
2017-04-12T12:51:28.951Z,60
2017-04-12T12:52:28.888Z,60
2017-04-12T12:53:28.817Z,52
2017-04-12T12:54:28.759Z,52
2017-04-12T12:55:28.689Z,52
2017-04-12T12:56:28.349Z,52
2017-04-12T12:57:28.571Z,44
2017-04-12T12:58:28.193Z,48
2017-04-12T12:59:28.435Z,52
2017-04-12T13:00:28.384Z,52
2017-04-12T13:01:28.307Z,48
2017-04-12T13:02:28.246Z,44
2017-04-12T13:03:28.185Z,40
2017-04-12T13:04:27.820Z,44
2017-04-12T13:05:28.059Z,48
2017-04-12T13:06:27.996Z,52
2017-04-12T13:07:27.945Z,52
2017-04-12T13:08:27.871Z,52
2017-04-12T13:09:27.852Z,52
2017-04-12T13:10:27.743Z,52
2017-04-12T13:11:27.382Z,48
2017-04-12T13:12:27.617Z,48
2017-04-12T13:13:27.551Z,44
2017-04-12T13:14:27.564Z,44
2017-04-12T13:15:27.441Z,48
2017-04-12T13:16:27.384Z,52
2017-04-12T13:17:27.316Z,48
2017-04-12T13:18:27.241Z,52
2017-04-12T13:19:27.178Z,52
2017-04-12T13:20:26.807Z,52
2017-04-12T13:21:27.051Z,52
2017-04-12T13:22:26.993Z,48
2017-04-12T13:23:26.924Z,48
2017-04-12T13:24:26.863Z,44
2017-04-12T13:25:26.796Z,44
2017-04-12T13:26:26.745Z,40
2017-04-12T13:27:26.858Z,40
2017-04-12T13:28:26.608Z,40
2017-04-12T13:29:26.541Z,36
2017-04-12T13:30:26.181Z,40
2017-04-12T13:31:26.424Z,36
2017-04-12T13:32:26.363Z,36
2017-04-12T13:33:25.998Z,36
2017-04-12T13:34:25.930Z,36
2017-04-12T13:35:26.164Z,36
2017-04-12T13:36:25.804Z,32
2017-04-12T13:37:26.053Z,32
2017-04-12T13:38:25.979Z,32
2017-04-12T13:39:25.923Z,32
2017-04-12T13:40:25.848Z,32
2017-04-12T13:41:25.785Z,32
2017-04-12T13:42:25.788Z,28
2017-04-12T13:43:25.674Z,28
2017-04-12T13:44:25.306Z,28
2017-04-12T13:45:25.537Z,28
2017-04-12T13:46:25.169Z,24
2017-04-12T13:47:25.413Z,24
2017-04-12T13:48:25.366Z,24
2017-04-12T13:49:25.291Z,24
2017-04-12T13:50:25.508Z,20
2017-04-12T13:51:25.185Z,24
2017-04-12T13:52:25.141Z,20
2017-04-12T13:53:25.034Z,20
2017-04-12T13:54:24.834Z,20
2017-04-12T13:55:24.691Z,20
2017-04-12T13:56:24.857Z,16
2017-04-12T13:57:24.916Z,20
2017-04-12T13:58:24.771Z,24
2017-04-12T13:59:24.655Z,24
2017-04-12T14:00:24.595Z,20
2017-04-12T14:01:24.533Z,20
2017-04-12T14:02:24.468Z,16
2017-04-12T14:03:24.404Z,16
2017-04-12T14:04:24.362Z,12
2017-04-12T14:05:24.275Z,16
2017-04-12T14:06:24.212Z,16
2017-04-12T14:07:24.153Z,16
2017-04-12T14:08:24.082Z,12
2017-04-12T14:09:24.022Z,16
2017-04-12T14:10:23.956Z,20
2017-04-12T14:11:23.896Z,16
2017-04-12T14:12:23.832Z,16
2017-04-12T14:13:23.770Z,20
2017-04-12T14:14:23.701Z,16
2017-04-12T14:15:23.643Z,20
2017-04-12T14:16:23.278Z,20
2017-04-12T14:17:23.525Z,20
2017-04-12T14:18:23.448Z,20
2017-04-12T14:19:23.393Z,24
2017-04-12T14:20:23.327Z,20
2017-04-12T14:21:23.265Z,20
2017-04-12T14:22:22.897Z,20
2017-04-12T14:23:23.137Z,16
2017-04-12T14:24:23.073Z,16
2017-04-12T14:25:23.013Z,16